Dades meteomassalio
Diari Summary for Febrer 3, 2018 Units:  Metric    English   Both
« Previous Day
Next Day »
Diari Semanal Mensual Anual Personalitzat
  Maxima: Minima: Mijana:
Temperatura: -17.8 °C -16.6 °C -14.2 °C
Rosada: -17.8 °C -18.4 °C -17.6 °C
Humitat: Humidity % 49 % 65 %
Velocitat del vent: 0 km/h 15 km/h 47.5 km/h
Racha vent: 0 km/h - -
Vent:- - NW
Pressio: 0 hPa 34361.1 hPa -
Pluja: 0 mm    
Historical Graphs
 
 
Tabular Data for Febrer 3, 2018
Time Temperature Dew Point Pressure Wind Wind Speed Wind Gust Humidity Rainfall Rate (Hourly) solar Conditions
-17.8 °C -17.8 °C 0 hPa Calm     Humidity % 0 mm SolarRadiationWatts/m^2 W/m2 Conditions
00:01 -16.2 °C -18.2 °C 34442.4 hPa NW 44.7 km/h 44.7 km/h 78 % 0 mm 0.0 W/m2 CLR
00:06 -16.2 °C -18.2 °C 34442.4 hPa NW 36.2 km/h 36.2 km/h 78 % 0 mm 0.0 W/m2 CLR
00:11 -16.2 °C -18.2 °C 34442.4 hPa North 38.8 km/h 38.8 km/h 78 % 0 mm 0.0 W/m2 CLR
00:16 -16.2 °C -18.2 °C 34442.4 hPa NW 41.4 km/h 41.4 km/h 78 % 0 mm 0.0 W/m2 CLR
00:21 -16.2 °C -18.2 °C 34442.4 hPa NW 47.6 km/h 47.6 km/h 78 % 0 mm 0.0 W/m2 CLR
00:26 -16.2 °C -18.2 °C 34442.4 hPa NW 41.7 km/h 41.7 km/h 78 % 0 mm 0.0 W/m2 CLR
00:31 -16.2 °C -18.2 °C 34442.4 hPa NNW 41.7 km/h 41.7 km/h 78 % 0 mm 0.0 W/m2 CLR
00:36 -16.2 °C -18.2 °C 34442.4 hPa NNW 38.8 km/h 38.8 km/h 78 % 0 mm 0.0 W/m2 CLR
00:41 -16.2 °C -18.1 °C 34442.4 hPa NW 35.7 km/h 35.7 km/h 79 % 0 mm 0.0 W/m2 CLR
00:46 -16.6 °C -18.4 °C 34442.4 hPa WNW 41.7 km/h 41.7 km/h 79 % 0 mm 0.0 W/m2 CLR
00:51 -16.6 °C -18.4 °C 34442.4 hPa NNW 35.7 km/h 35.7 km/h 78 % 0 mm 0.0 W/m2 CLR
00:56 -16.6 °C -18.4 °C 34442.4 hPa NNW 51.8 km/h 51.8 km/h 79 % 0 mm 0.0 W/m2 CLR
01:01 -16.2 °C -18.1 °C 34442.4 hPa NW 36.2 km/h 36.2 km/h 79 % 0 mm 0.0 W/m2 CLR
01:06 -16.6 °C -18.4 °C 34428.8 hPa NW 33.6 km/h 33.6 km/h 79 % 0 mm 0.0 W/m2 CLR
01:11 -16.2 °C -18.2 °C 34428.8 hPa North 56.6 km/h 56.6 km/h 78 % 0 mm 0.0 W/m2 CLR
01:16 -16.2 °C -18.2 °C 34428.8 hPa NNW 47.6 km/h 47.6 km/h 78 % 0 mm 0.0 W/m2 CLR
01:21 -16.2 °C -18.2 °C 34428.8 hPa North 67.3 km/h 67.3 km/h 78 % 0 mm 0.0 W/m2 CLR
01:26 -16.2 °C -18.2 °C 34428.8 hPa NNW 56.6 km/h 56.6 km/h 78 % 0 mm 0.0 W/m2 CLR
01:31 -16.2 °C -18.2 °C 34428.8 hPa NNW 53.6 km/h 53.6 km/h 78 % 0 mm 0.0 W/m2 CLR
01:36 -16.2 °C -18.1 °C 34428.8 hPa NW 47.6 km/h 47.6 km/h 79 % 0 mm 0.0 W/m2 CLR
01:41 -16.2 °C -18.1 °C 34428.8 hPa NNW 62.6 km/h 62.6 km/h 79 % 0 mm 0.0 W/m2 CLR
01:46 -16.2 °C -18.2 °C 34428.8 hPa NW 56.6 km/h 56.6 km/h 78 % 0 mm 0.0 W/m2 CLR
01:51 -16.2 °C -18.2 °C 34428.8 hPa NNW 50.7 km/h 50.7 km/h 78 % 0 mm 0.0 W/m2 CLR
01:56 -16.2 °C -18.2 °C 34442.4 hPa NNW 56.6 km/h 56.6 km/h 78 % 0 mm 0.0 W/m2 CLR
02:01 -16.2 °C -18.2 °C 34428.8 hPa NW 59.5 km/h 59.5 km/h 78 % 0 mm 0.0 W/m2 CLR
02:06 -16.2 °C -18.2 °C 34442.4 hPa NNW 65.5 km/h 65.5 km/h 78 % 0 mm 0.0 W/m2 CLR
02:11 -16.2 °C -18.2 °C 34428.8 hPa NW 74.5 km/h 74.5 km/h 78 % 0 mm 0.0 W/m2 CLR
02:16 -16.2 °C -18.2 °C 34442.4 hPa North 57 km/h 57 km/h 77 % 0 mm 0.0 W/m2 CLR
02:21 -15.9 °C -17.9 °C 34442.4 hPa North 53.6 km/h 53.6 km/h 77 % 0 mm 0.0 W/m2 CLR
02:26 -16.2 °C -18.4 °C 34442.4 hPa NNW 68.6 km/h 68.6 km/h 76 % 0 mm 0.0 W/m2 CLR
02:31 -15.9 °C -18.2 °C 34442.4 hPa NW 56.6 km/h 56.6 km/h 75 % 0 mm 0.0 W/m2 CLR
02:36 -15.9 °C -18.2 °C 34452.6 hPa NNW 62.6 km/h 62.6 km/h 75 % 0 mm 0.0 W/m2 CLR
02:41 -15.9 °C -18.2 °C 34452.6 hPa NNW 49.2 km/h 49.2 km/h 75 % 0 mm 0.0 W/m2 CLR
02:47 -15.9 °C -18.2 °C 34452.6 hPa NNW 41.7 km/h 41.7 km/h 75 % 0 mm 0.0 W/m2 CLR
02:52 -15.9 °C -18.2 °C 34452.6 hPa NW 41.7 km/h 41.7 km/h 75 % 0 mm 0.0 W/m2 CLR
02:57 -15.9 °C -18.1 °C 34452.6 hPa NW 41.7 km/h 41.7 km/h 76 % 0 mm 0.0 W/m2 CLR
03:02 -15.9 °C -18.1 °C 34452.6 hPa NW 38.8 km/h 38.8 km/h 76 % 0 mm 0.0 W/m2 CLR
03:07 -15.9 °C -18.1 °C 34452.6 hPa NW 47.6 km/h 47.6 km/h 76 % 0 mm 0.0 W/m2 CLR
03:12 -15.9 °C -17.9 °C 34452.6 hPa NNW 65.5 km/h 65.5 km/h 77 % 0 mm 0.0 W/m2 CLR
03:17 -15.9 °C -17.9 °C 34452.6 hPa NNW 53.6 km/h 53.6 km/h 77 % 0 mm 0.0 W/m2 CLR
03:22 -15.9 °C -17.9 °C 34452.6 hPa NNW 68.6 km/h 68.6 km/h 78 % 0 mm 0.0 W/m2 CLR
03:27 -15.9 °C -17.9 °C 34442.4 hPa North 56.6 km/h 56.6 km/h 78 % 0 mm 0.0 W/m2 CLR
03:32 -15.9 °C -17.9 °C 34442.4 hPa NW 59.5 km/h 59.5 km/h 78 % 0 mm 0.0 W/m2 CLR
03:37 -15.9 °C -17.9 °C 34442.4 hPa NNW 62.6 km/h 62.6 km/h 77 % 0 mm 0.0 W/m2 CLR
03:42 -15.9 °C -17.9 °C 34442.4 hPa NNW 68.6 km/h 68.6 km/h 77 % 0 mm 0.0 W/m2 CLR
03:47 -15.9 °C -17.9 °C 34452.6 hPa NNW 56.6 km/h 56.6 km/h 77 % 0 mm 0.0 W/m2 CLR
03:52 -15.9 °C -17.9 °C 34452.6 hPa NNW 49.2 km/h 49.2 km/h 77 % 0 mm 0.0 W/m2 CLR
03:57 -15.9 °C -18.1 °C 34452.6 hPa NNW 59.5 km/h 59.5 km/h 76 % 0 mm 0.0 W/m2 CLR
04:02 -15.9 °C -18.1 °C 34442.4 hPa NNW 41.7 km/h 41.7 km/h 76 % 0 mm 0.0 W/m2 CLR
04:07 -15.9 °C -18.2 °C 34442.4 hPa NNW 59.5 km/h 59.5 km/h 75 % 0 mm 0.0 W/m2 CLR
04:12 -15.9 °C -18.2 °C 34442.4 hPa NNW 50.7 km/h 50.7 km/h 75 % 0 mm 0.0 W/m2 CLR
04:17 -15.9 °C -18.2 °C 34442.4 hPa NNW 57 km/h 57 km/h 75 % 0 mm 0.0 W/m2 CLR
04:22 -15.9 °C -18.1 °C 34442.4 hPa NW 62.6 km/h 62.6 km/h 76 % 0 mm 0.0 W/m2 CLR
04:27 -15.9 °C -18.2 °C 34442.4 hPa NNW 65.5 km/h 65.5 km/h 75 % 0 mm 0.0 W/m2 CLR
04:32 -15.9 °C -18.2 °C 34442.4 hPa North 41.7 km/h 41.7 km/h 75 % 0 mm 0.0 W/m2 CLR
04:37 -15.9 °C -18.1 °C 34442.4 hPa NW 59.5 km/h 59.5 km/h 76 % 0 mm 0.0 W/m2 CLR
04:42 -15.9 °C -18.2 °C 34442.4 hPa NW 51.8 km/h 51.8 km/h 75 % 0 mm 0.0 W/m2 CLR
04:47 -15.9 °C -18.2 °C 34452.6 hPa NW 50.7 km/h 50.7 km/h 75 % 0 mm 0.0 W/m2 CLR
04:52 -15.9 °C -18.2 °C 34452.6 hPa North 65.5 km/h 65.5 km/h 75 % 0 mm 0.0 W/m2 CLR
04:57 -15.9 °C -18.3 °C 34442.4 hPa NW 44.7 km/h 44.7 km/h 74 % 0 mm 0.0 W/m2 CLR
05:02 -15.9 °C -18.3 °C 34442.4 hPa NNW 57 km/h 57 km/h 74 % 0 mm 0.0 W/m2 CLR
05:07 -15.9 °C -18.2 °C 34442.4 hPa NNW 59.5 km/h 59.5 km/h 75 % 0 mm 0.0 W/m2 CLR
05:12 -15.9 °C -18.2 °C 34452.6 hPa NNW 68.6 km/h 68.6 km/h 75 % 0 mm 0.0 W/m2 CLR
05:17 -15.9 °C -18.2 °C 34452.6 hPa NNW 53.6 km/h 53.6 km/h 75 % 0 mm 0.0 W/m2 CLR
05:22 -15.9 °C -18.1 °C 34452.6 hPa NNW 62.1 km/h 62.1 km/h 76 % 0 mm 0.0 W/m2 CLR
05:27 -15.9 °C -17.9 °C 34452.6 hPa NNW 47.6 km/h 47.6 km/h 77 % 0 mm 0.0 W/m2 CLR
05:32 -15.9 °C -17.9 °C 34452.6 hPa NW 68.6 km/h 68.6 km/h 77 % 0 mm 0.0 W/m2 CLR
05:37 -15.9 °C -17.9 °C 34452.6 hPa North 65.5 km/h 65.5 km/h 77 % 0 mm 0.0 W/m2 CLR
05:42 -15.9 °C -18.1 °C 34452.6 hPa NNW 59.5 km/h 59.5 km/h 76 % 0 mm 0.0 W/m2 CLR
05:47 -15.9 °C -18.1 °C 34442.4 hPa NNW 59.5 km/h 59.5 km/h 76 % 0 mm 0.0 W/m2 CLR
05:52 -15.9 °C -18.2 °C 34452.6 hPa NNW 68.6 km/h 68.6 km/h 75 % 0 mm 0.0 W/m2 CLR
05:57 -15.9 °C -18.2 °C 34452.6 hPa NNW 59.5 km/h 59.5 km/h 75 % 0 mm 0.0 W/m2 CLR
06:02 -15.9 °C -18.2 °C 34452.6 hPa NW 56.6 km/h 56.6 km/h 75 % 0 mm 0.0 W/m2 CLR
06:07 -15.9 °C -18.2 °C 34452.6 hPa North 59.5 km/h 59.5 km/h 75 % 0 mm 0.0 W/m2 CLR
06:12 -15.9 °C -18.2 °C 34462.7 hPa NW 47.6 km/h 47.6 km/h 75 % 0 mm 0.0 W/m2 CLR
06:17 -15.9 °C -18.2 °C 34462.7 hPa NW 41.7 km/h 41.7 km/h 75 % 0 mm 0.0 W/m2 CLR
06:22 -15.9 °C -18.2 °C 34462.7 hPa NNW 54.4 km/h 54.4 km/h 75 % 0 mm 0.0 W/m2 CLR
06:27 -15.9 °C -18.2 °C 34462.7 hPa NNW 41.4 km/h 41.4 km/h 75 % 0 mm 0.0 W/m2 CLR
06:32 -15.9 °C -18.1 °C 34462.7 hPa NW 47.6 km/h 47.6 km/h 76 % 0 mm 0.0 W/m2 CLR
06:37 -15.9 °C -18.1 °C 34462.7 hPa North 41.4 km/h 41.4 km/h 76 % 0 mm 0.0 W/m2 CLR
06:42 -15.9 °C -18.1 °C 34462.7 hPa NW 50.7 km/h 50.7 km/h 76 % 0 mm 0.0 W/m2 CLR
06:47 -15.9 °C -18.2 °C 34462.7 hPa NW 50.7 km/h 50.7 km/h 75 % 0 mm 0.0 W/m2 CLR
06:52 -15.9 °C -18.2 °C 34462.7 hPa NNW 50.7 km/h 50.7 km/h 75 % 0 mm 0.0 W/m2 CLR
06:57 -15.9 °C -18.2 °C 34462.7 hPa NNW 53.6 km/h 53.6 km/h 75 % 0 mm 0.0 W/m2 CLR
07:02 -15.9 °C -18.2 °C 34462.7 hPa NW 49.2 km/h 49.2 km/h 75 % 0 mm 0.0 W/m2 CLR
07:07 -15.9 °C -18.2 °C 34462.7 hPa NNW 50.7 km/h 50.7 km/h 75 % 0 mm 0.0 W/m2 CLR
07:12 -15.9 °C -18.2 °C 34476.3 hPa NNW 51.8 km/h 51.8 km/h 75 % 0 mm 0.0 W/m2 CLR
07:17 -15.9 °C -18.2 °C 34462.7 hPa NNW 53.6 km/h 53.6 km/h 75 % 0 mm 0.0 W/m2 CLR
07:22 -15.9 °C -18.2 °C 34462.7 hPa NNW 59.5 km/h 59.5 km/h 75 % 0 mm 0.0 W/m2 CLR
07:27 -15.9 °C -18.3 °C 34462.7 hPa North 69.8 km/h 69.8 km/h 74 % 0 mm 0.0 W/m2 CLR
07:32 -15.6 °C -17.9 °C 34462.7 hPa NNW 65.5 km/h 65.5 km/h 74 % 0 mm 0.0 W/m2 CLR
07:37 -15.6 °C -17.9 °C 34476.3 hPa NW 47.6 km/h 47.6 km/h 74 % 0 mm 0.0 W/m2 CLR
07:42 -15.6 °C -17.9 °C 34476.3 hPa NW 56.6 km/h 56.6 km/h 75 % 0 mm 0.0 W/m2 CLR
07:47 -15.6 °C -17.9 °C 34476.3 hPa NW 71.5 km/h 71.5 km/h 74 % 0 mm 0.0 W/m2 CLR
07:52 -15.6 °C -17.9 °C 34486.4 hPa NNW 59.5 km/h 59.5 km/h 74 % 0 mm 0.0 W/m2 CLR
07:57 -15.6 °C -17.9 °C 34486.4 hPa NW 50.7 km/h 50.7 km/h 74 % 0 mm 0.0 W/m2 CLR
08:02 -15.6 °C -17.9 °C 34486.4 hPa NW 50.7 km/h 50.7 km/h 74 % 0 mm 0.0 W/m2 OVC
08:07 -15.6 °C -18.1 °C 34486.4 hPa NW 50.7 km/h 50.7 km/h 73 % 0 mm 5.0 W/m2 OVC
08:12 -15.6 °C -18.1 °C 34486.4 hPa NW 41.7 km/h 41.7 km/h 73 % 0 mm 7.0 W/m2 OVC
08:17 -15.6 °C -18.1 °C 34486.4 hPa NW 41.7 km/h 41.7 km/h 73 % 0 mm 11.0 W/m2 BKN
08:22 -15.6 °C -17.9 °C 34486.4 hPa WNW 41.7 km/h 41.7 km/h 74 % 0 mm 12.0 W/m2 BKN
08:27 -15.6 °C -18.1 °C 34486.4 hPa NNW 32.8 km/h 32.8 km/h 73 % 0 mm 19.0 W/m2 BKN
08:33 -15.6 °C -18.1 °C 34486.4 hPa NNW 32.8 km/h 32.8 km/h 73 % 0 mm 26.0 W/m2 BKN
08:38 -15.6 °C -18.2 °C 34486.4 hPa NNW 41.7 km/h 41.7 km/h 72 % 0 mm 30.0 W/m2 BKN
08:43 -15.6 °C -18.3 °C 34486.4 hPa North 33.6 km/h 33.6 km/h 71 % 0 mm 35.0 W/m2 BKN
08:48 -15.6 °C -18.3 °C 34486.4 hPa NW 53.6 km/h 53.6 km/h 71 % 0 mm 28.0 W/m2 BKN
08:53 -15.3 °C -17.9 °C 34486.4 hPa NNW 25.9 km/h 25.9 km/h 71 % 0 mm 33.0 W/m2 BKN
08:58 -15.3 °C -18.1 °C 34486.4 hPa NNW 31.1 km/h 31.1 km/h 70 % 0 mm 30.0 W/m2 BKN
09:03 -15.3 °C -18.2 °C 34496.6 hPa NW 38.8 km/h 38.8 km/h 69 % 0 mm 28.0 W/m2 BKN
09:08 -15.3 °C -18.2 °C 34496.6 hPa NNW 31.1 km/h 31.1 km/h 69 % 0 mm 33.0 W/m2 BKN
09:13 -15.3 °C -18.2 °C 34496.6 hPa NW 26.9 km/h 27.2 km/h 69 % 0 mm 35.0 W/m2 BKN
09:18 -15.3 °C -18.2 °C 34496.6 hPa WNW 35.7 km/h 35.7 km/h 69 % 0 mm 35.0 W/m2 BKN
09:23 -15.3 °C -18.3 °C 34496.6 hPa NW 44.7 km/h 44.7 km/h 68 % 0 mm 33.0 W/m2 BKN
09:28 -15.3 °C -18.3 °C 34496.6 hPa NW 41.7 km/h 41.7 km/h 68 % 0 mm 46.0 W/m2 BKN
09:33 -15.3 °C -18.2 °C 34496.6 hPa WNW 29.8 km/h 29.8 km/h 69 % 0 mm 49.0 W/m2 BKN
09:38 -15.3 °C -18.2 °C 34496.6 hPa NW 29.8 km/h 29.8 km/h 69 % 0 mm 69.0 W/m2 SCT
09:43 -15.3 °C -18.2 °C 34510.1 hPa NW 29.8 km/h 29.8 km/h 69 % 0 mm 58.0 W/m2 SCT
09:48 -15.3 °C -18.2 °C 34510.1 hPa NW 26.9 km/h 26.9 km/h 69 % 0 mm 120.0 W/m2 FEW
09:53 -15 °C -18 °C 34510.1 hPa NNW 35.7 km/h 35.7 km/h 68 % 0 mm 105.0 W/m2 CLR
09:58 -15 °C -18 °C 34496.6 hPa NW 44.7 km/h 44.7 km/h 68 % 0 mm 132.0 W/m2 CLR
10:03 -14.7 °C -17.7 °C 34496.6 hPa NW 50.7 km/h 50.7 km/h 68 % 0 mm 355.0 W/m2 CLR
10:08 -14.4 °C -17.6 °C 34496.6 hPa NNW 44.7 km/h 44.7 km/h 67 % 0 mm 128.0 W/m2 CLR
10:13 -14.4 °C -17.6 °C 34496.6 hPa NNW 59.5 km/h 59.5 km/h 67 % 0 mm 148.0 W/m2 CLR
10:18 -14.4 °C -17.6 °C 34496.6 hPa NW 44.7 km/h 44.7 km/h 67 % 0 mm 69.0 W/m2 CLR
10:23 -14.4 °C -17.4 °C 34496.6 hPa North 59.5 km/h 59.5 km/h 68 % 0 mm 336.0 W/m2 FEW
10:28 -14.4 °C -17.6 °C 34496.6 hPa North 59.5 km/h 59.5 km/h 67 % 0 mm 338.0 W/m2 CLR
10:33 -14.1 °C -17.3 °C 34486.4 hPa North 62.6 km/h 62.6 km/h 66 % 0 mm 346.0 W/m2 CLR
10:38 -13.8 °C -17.1 °C 34486.4 hPa North 68.6 km/h 68.6 km/h 66 % 0 mm 359.0 W/m2 CLR
10:43 -13.8 °C -17.2 °C 34486.4 hPa NNW 65.5 km/h 65.5 km/h 65 % 0 mm 371.0 W/m2 CLR
10:48 -13.8 °C -17.3 °C 34486.4 hPa NNW 71.5 km/h 71.5 km/h 64 % 0 mm 381.0 W/m2 CLR
10:53 -13.4 °C -17 °C 34486.4 hPa NNW 68.6 km/h 68.6 km/h 64 % 0 mm 394.0 W/m2 CLR
10:58 -13.4 °C -17.1 °C 34486.4 hPa North 71.5 km/h 71.5 km/h 63 % 0 mm 408.0 W/m2 CLR
11:03 -13.4 °C -17.1 °C 34486.4 hPa NNW 86.4 km/h 86.4 km/h 63 % 0 mm 390.0 W/m2 CLR
11:08 -13.4 °C -17.1 °C 34486.4 hPa NNW 65.5 km/h 65.5 km/h 63 % 0 mm 390.0 W/m2 CLR
11:13 -13.4 °C -17.1 °C 34486.4 hPa NNW 65.5 km/h 65.5 km/h 63 % 0 mm 432.0 W/m2 CLR
11:18 -13.4 °C -17.1 °C 34486.4 hPa North 83.4 km/h 83.4 km/h 63 % 0 mm 445.0 W/m2 CLR
11:23 -13.4 °C -17.3 °C 34486.4 hPa NNW 77.4 km/h 77.4 km/h 62 % 0 mm 452.0 W/m2 CLR
11:28 -13.2 °C -17 °C 34486.4 hPa NNW 71.5 km/h 71.5 km/h 62 % 0 mm 462.0 W/m2 CLR
11:33 -13.2 °C -17.1 °C 34486.4 hPa NW 68.6 km/h 68.6 km/h 61 % 0 mm 434.0 W/m2 CLR
11:38 -13.2 °C -17.1 °C 34486.4 hPa NNW 44.1 km/h 44.1 km/h 61 % 0 mm 439.0 W/m2 CLR
11:43 -13.2 °C -17 °C 34496.6 hPa NNW 59.5 km/h 59.5 km/h 62 % 0 mm 188.0 W/m2 CLR
11:48 -13.4 °C -17.4 °C 34496.6 hPa NW 47.6 km/h 47.6 km/h 61 % 0 mm 172.0 W/m2 CLR
11:53 -13.4 °C -17.4 °C 34496.6 hPa NNW 53.6 km/h 53.6 km/h 61 % 0 mm 188.0 W/m2 CLR
11:58 -13.4 °C -17.5 °C 34486.4 hPa NW 59.5 km/h 59.5 km/h 60 % 0 mm 176.0 W/m2 CLR
12:03 -13.4 °C -17.4 °C 34486.4 hPa NW 74.5 km/h 74.5 km/h 61 % 0 mm 172.0 W/m2 CLR
12:08 -13.4 °C -17.3 °C 34496.6 hPa NW 50.7 km/h 50.7 km/h 62 % 0 mm 181.0 W/m2 CLR
12:13 -13.4 °C -17.3 °C 34496.6 hPa NNW 59.5 km/h 59.5 km/h 62 % 0 mm 169.0 W/m2 CLR
12:18 -13.4 °C -17.4 °C 34496.6 hPa NW 65.5 km/h 65.5 km/h 61 % 0 mm 155.0 W/m2 CLR
12:23 -13.4 °C -17.5 °C 34496.6 hPa NNW 53.6 km/h 53.6 km/h 60 % 0 mm 192.0 W/m2 CLR
12:28 -13.2 °C -17.2 °C 34486.4 hPa NW 53.6 km/h 53.6 km/h 60 % 0 mm 250.0 W/m2 CLR
12:33 -13.2 °C -17.1 °C 34486.4 hPa NNW 51.8 km/h 51.8 km/h 61 % 0 mm 311.0 W/m2 CLR
12:38 -12.8 °C -17.1 °C 34486.4 hPa NW 65.5 km/h 65.5 km/h 59 % 0 mm 473.0 W/m2 CLR
12:43 -12.2 °C -16.6 °C 34486.4 hPa NNW 74.5 km/h 74.5 km/h 58 % 0 mm 807.0 W/m2 CLR
12:48 -11.9 °C -16.6 °C 34486.4 hPa NNW 68.6 km/h 68.6 km/h 56 % 0 mm 791.0 W/m2 CLR
12:53 -12.2 °C -16.7 °C 34486.4 hPa NNW 41.4 km/h 41.4 km/h 57 % 0 mm 367.0 W/m2 CLR
12:58 -12.2 °C -16.9 °C 34486.4 hPa NNW 68.6 km/h 68.6 km/h 56 % 0 mm 534.0 W/m2 CLR
13:03 -11.9 °C -16.9 °C 34476.3 hPa North 71.5 km/h 71.5 km/h 54 % 0 mm 429.0 W/m2 CLR
13:08 -11.9 °C -16.7 °C 34476.3 hPa North 59.5 km/h 59.5 km/h 55 % 0 mm 415.0 W/m2 CLR
13:13 -11.9 °C -16.7 °C 34476.3 hPa NNW 77.7 km/h 77.7 km/h 55 % 0 mm 346.0 W/m2 CLR
13:18 -12.2 °C -16.9 °C 34476.3 hPa NNW 56.6 km/h 56.6 km/h 56 % 0 mm 297.0 W/m2 CLR
13:23 -12.6 °C -17.1 °C 34476.3 hPa NW 71.5 km/h 71.5 km/h 57 % 0 mm 320.0 W/m2 CLR
13:28 -12.6 °C -17.1 °C 34476.3 hPa NNW 59.5 km/h 59.5 km/h 57 % 0 mm 313.0 W/m2 CLR
13:33 -12.6 °C -16.9 °C 34462.7 hPa NNW 56.6 km/h 56.6 km/h 58 % 0 mm 294.0 W/m2 CLR
13:38 -12.6 °C -16.9 °C 34462.7 hPa North 59.5 km/h 59.5 km/h 58 % 0 mm 330.0 W/m2 CLR
13:43 -12.6 °C -17.2 °C 34452.6 hPa NNW 68.6 km/h 68.6 km/h 56 % 0 mm 301.0 W/m2 CLR
13:48 -12.6 °C -17.1 °C 34442.4 hPa North 50.7 km/h 50.7 km/h 57 % 0 mm 306.0 W/m2 CLR
13:53 -12.6 °C -17.3 °C 34442.4 hPa NW 62.6 km/h 62.6 km/h 55 % 0 mm 323.0 W/m2 CLR
13:58 -12.6 °C -17.2 °C 34442.4 hPa NNW 53.6 km/h 53.6 km/h 56 % 0 mm 308.0 W/m2 CLR
14:03 -12.2 °C -17.2 °C 34442.4 hPa NNW 71.5 km/h 71.5 km/h 54 % 0 mm 355.0 W/m2 CLR
14:08 -12.2 °C -17.3 °C 34428.8 hPa NW 68.6 km/h 68.6 km/h 53 % 0 mm 376.0 W/m2 CLR
14:13 -12.2 °C -17.4 °C 34428.8 hPa North 65.5 km/h 65.5 km/h 52 % 0 mm 373.0 W/m2 CLR
14:19 -12.2 °C -17.3 °C 34418.7 hPa NNW 83.4 km/h 83.4 km/h 53 % 0 mm 568.0 W/m2 CLR
14:24 -11.9 °C -17.2 °C 34418.7 hPa North 80.5 km/h 80.5 km/h 52 % 0 mm 543.0 W/m2 CLR
14:29 -11.9 °C -17.2 °C 34418.7 hPa NW 71.5 km/h 71.5 km/h 52 % 0 mm 492.0 W/m2 CLR
14:34 -11.9 °C -17.3 °C 34418.7 hPa NNW 72.6 km/h 72.6 km/h 51 % 0 mm 540.0 W/m2 CLR
14:39 -11.9 °C -17.4 °C 34418.7 hPa North 62.6 km/h 62.6 km/h 50 % 0 mm 543.0 W/m2 CLR
14:44 -11.9 °C -17.3 °C 34418.7 hPa North 68.6 km/h 68.6 km/h 51 % 0 mm 540.0 W/m2 CLR
14:49 -11.6 °C -16.9 °C 34405.1 hPa NW 53.6 km/h 53.6 km/h 52 % 0 mm 522.0 W/m2 CLR
14:54 -11.6 °C -17.1 °C 34405.1 hPa NNW 59.5 km/h 59.5 km/h 51 % 0 mm 496.0 W/m2 CLR
14:59 -11.6 °C -16.9 °C 34405.1 hPa NNW 59.5 km/h 59.5 km/h 52 % 0 mm 483.0 W/m2 CLR
15:04 -11.9 °C -17.3 °C 34405.1 hPa North 56.6 km/h 56.6 km/h 51 % 0 mm 473.0 W/m2 CLR
15:09 -11.6 °C -16.9 °C 34405.1 hPa NNW 46.7 km/h 46.7 km/h 52 % 0 mm 469.0 W/m2 CLR
15:14 -11.6 °C -16.9 °C 34405.1 hPa NW 46.7 km/h 46.7 km/h 52 % 0 mm 459.0 W/m2 CLR
15:19 -11.3 °C -16.8 °C 34405.1 hPa North 50.7 km/h 50.7 km/h 51 % 0 mm 418.0 W/m2 CLR
15:24 -11.6 °C -17.2 °C 34405.1 hPa NNW 44.1 km/h 44.1 km/h 50 % 0 mm 401.0 W/m2 CLR
15:29 -11.6 °C -17.2 °C 34405.1 hPa North 62.6 km/h 62.6 km/h 50 % 0 mm 294.0 W/m2 CLR
15:34 -11.6 °C -17.1 °C 34405.1 hPa NNW 65.5 km/h 65.5 km/h 51 % 0 mm 294.0 W/m2 CLR
15:39 -11.6 °C -17.1 °C 34405.1 hPa NNW 44.7 km/h 44.7 km/h 51 % 0 mm 178.0 W/m2 CLR
15:44 -11.9 °C -17.3 °C 34405.1 hPa NNW 53.6 km/h 53.6 km/h 51 % 0 mm 220.0 W/m2 CLR
15:49 -11.9 °C -17.3 °C 34405.1 hPa North 35.7 km/h 35.7 km/h 51 % 0 mm 186.0 W/m2 CLR
15:54 -11.9 °C -17.3 °C 34405.1 hPa NNW 47.6 km/h 47.6 km/h 51 % 0 mm 179.0 W/m2 CLR
15:59 -11.9 °C -17.4 °C 34395 hPa NW 47.6 km/h 47.6 km/h 50 % 0 mm 155.0 W/m2 CLR
16:04 -11.9 °C -17.4 °C 34395 hPa NW 32.8 km/h 32.8 km/h 50 % 0 mm 141.0 W/m2 CLR
16:09 -11.9 °C -17.6 °C 34395 hPa NNW 44.7 km/h 44.7 km/h 49 % 0 mm 153.0 W/m2 CLR
16:14 -11.9 °C -17.3 °C 34384.8 hPa NNW 56.6 km/h 56.6 km/h 51 % 0 mm 167.0 W/m2 CLR
16:19 -11.9 °C -17.4 °C 34384.8 hPa North 57 km/h 57 km/h 50 % 0 mm 185.0 W/m2 CLR
16:24 -11.9 °C -17.3 °C 34384.8 hPa NNW 44.7 km/h 44.7 km/h 51 % 0 mm 121.0 W/m2 CLR
16:29 -11.9 °C -17.4 °C 34384.8 hPa NW 50.7 km/h 50.7 km/h 50 % 0 mm 144.0 W/m2 CLR
16:34 -11.9 °C -17.4 °C 34384.8 hPa NNW 38.8 km/h 38.8 km/h 50 % 0 mm 151.0 W/m2 CLR
16:39 -11.9 °C -17.3 °C 34384.8 hPa North 38.8 km/h 38.8 km/h 51 % 0 mm 111.0 W/m2 CLR
16:44 -11.9 °C -17.3 °C 34384.8 hPa WNW 26.9 km/h 26.9 km/h 51 % 0 mm 174.0 W/m2 CLR
16:49 -11.9 °C -17.4 °C 34384.8 hPa NW 38.8 km/h 38.8 km/h 50 % 0 mm 260.0 W/m2 CLR
16:54 -11.9 °C -17.4 °C 34384.8 hPa NW 50.7 km/h 50.7 km/h 50 % 0 mm 174.0 W/m2 CLR
16:59 -11.9 °C -17.3 °C 34384.8 hPa West 44.7 km/h 44.7 km/h 51 % 0 mm 193.0 W/m2 CLR
17:04 -11.9 °C -17.4 °C 34384.8 hPa NNW 44.7 km/h 44.7 km/h 50 % 0 mm 91.0 W/m2 CLR
17:09 -12.2 °C -17.6 °C 34384.8 hPa NW 56.6 km/h 56.6 km/h 51 % 0 mm 134.0 W/m2 FEW
17:14 -11.9 °C -17.2 °C 34384.8 hPa NW 41.7 km/h 41.7 km/h 52 % 0 mm 70.0 W/m2 CLR
17:19 -12.2 °C -17.6 °C 34384.8 hPa NW 50.7 km/h 50.7 km/h 51 % 0 mm 58.0 W/m2 SCT
17:24 -12.2 °C -17.6 °C 34384.8 hPa NW 59.5 km/h 59.5 km/h 51 % 0 mm 32.0 W/m2 BKN
17:29 -12.2 °C -17.4 °C 34371.3 hPa NW 35.7 km/h 35.7 km/h 52 % 0 mm 16.0 W/m2 BKN
17:34 -12.2 °C -17.4 °C 34371.3 hPa NW 50.7 km/h 50.7 km/h 52 % 0 mm 23.0 W/m2 BKN
17:39 -12.6 °C -17.7 °C 34371.3 hPa NW 32.8 km/h 32.8 km/h 52 % 0 mm 37.0 W/m2 BKN
17:44 -12.6 °C -17.6 °C 34371.3 hPa NNW 41.7 km/h 41.7 km/h 53 % 0 mm 35.0 W/m2 BKN
17:49 -12.6 °C -17.7 °C 34371.3 hPa NW 29.8 km/h 29.8 km/h 52 % 0 mm 30.0 W/m2 BKN
17:54 -12.6 °C -17.6 °C 34371.3 hPa NW 32.8 km/h 32.8 km/h 53 % 0 mm 18.0 W/m2 BKN
17:59 -12.6 °C -17.6 °C 34371.3 hPa NW 32.8 km/h 32.8 km/h 53 % 0 mm 14.0 W/m2 BKN
18:04 -12.6 °C -17.6 °C 34371.3 hPa NW 35.7 km/h 35.7 km/h 53 % 0 mm 11.0 W/m2 BKN
18:09 -12.6 °C -17.6 °C 34371.3 hPa NW 35.7 km/h 35.7 km/h 53 % 0 mm 5.0 W/m2 OVC
18:14 -12.6 °C -17.6 °C 34371.3 hPa WNW 23.8 km/h 23.8 km/h 53 % 0 mm 0.0 W/m2 OVC
18:19 -12.6 °C -17.6 °C 34371.3 hPa WNW 20.9 km/h 20.9 km/h 53 % 0 mm 0.0 W/m2 OVC
18:24 -12.6 °C -17.6 °C 34371.3 hPa WNW 29.8 km/h 29.8 km/h 53 % 0 mm 0.0 W/m2 OVC
18:29 -12.6 °C -17.4 °C 34371.3 hPa NW 23.8 km/h 23.8 km/h 54 % 0 mm 0.0 W/m2 CLR
18:34 -12.8 °C -17.7 °C 34371.3 hPa NW 26.9 km/h 26.9 km/h 54 % 0 mm 0.0 W/m2 CLR
18:39 -12.8 °C -17.7 °C 34371.3 hPa NW 20.9 km/h 20.9 km/h 54 % 0 mm 0.0 W/m2 CLR
18:44 -12.8 °C -17.6 °C 34371.3 hPa NW 26.9 km/h 26.9 km/h 55 % 0 mm 0.0 W/m2 CLR
18:49 -12.8 °C -17.6 °C 34371.3 hPa NW 29.8 km/h 29.8 km/h 55 % 0 mm 0.0 W/m2 CLR
18:54 -12.8 °C -17.6 °C 34371.3 hPa NNW 31.1 km/h 31.1 km/h 55 % 0 mm 0.0 W/m2 CLR
18:59 -12.8 °C -17.6 °C 34371.3 hPa NNW 26.9 km/h 26.9 km/h 55 % 0 mm 0.0 W/m2 CLR
19:04 -12.6 °C -17.2 °C 34371.3 hPa NW 29.8 km/h 29.8 km/h 56 % 0 mm 0.0 W/m2 CLR
19:09 -12.6 °C -17.2 °C 34371.3 hPa NW 32.8 km/h 32.8 km/h 56 % 0 mm 0.0 W/m2 CLR
19:14 -12.6 °C -17.1 °C 34371.3 hPa NNW 28.5 km/h 28.5 km/h 57 % 0 mm 0.0 W/m2 CLR
19:19 -12.6 °C -17.1 °C 34371.3 hPa North 32.8 km/h 32.8 km/h 57 % 0 mm 0.0 W/m2 CLR
19:24 -12.6 °C -16.9 °C 34371.3 hPa North 38.8 km/h 38.8 km/h 58 % 0 mm 0.0 W/m2 CLR
19:29 -12.6 °C -17.1 °C 34371.3 hPa NW 41.7 km/h 41.7 km/h 57 % 0 mm 0.0 W/m2 CLR
19:34 -12.6 °C -17.2 °C 34371.3 hPa NNW 38.8 km/h 38.8 km/h 56 % 0 mm 0.0 W/m2 CLR
19:39 -12.6 °C -17.2 °C 34371.3 hPa NNW 35.7 km/h 35.7 km/h 56 % 0 mm 0.0 W/m2 CLR
19:44 -12.6 °C -17.1 °C 34371.3 hPa NNW 38.8 km/h 38.8 km/h 57 % 0 mm 0.0 W/m2 CLR
19:49 -12.6 °C -16.9 °C 34371.3 hPa NW 26.9 km/h 26.9 km/h 58 % 0 mm 0.0 W/m2 CLR
19:54 -12.6 °C -17.1 °C 34371.3 hPa NNW 23.8 km/h 23.8 km/h 57 % 0 mm 0.0 W/m2 CLR
19:59 -12.8 °C -17.1 °C 34371.3 hPa North 29.8 km/h 29.8 km/h 59 % 0 mm 0.0 W/m2 CLR
20:05 -12.8 °C -17.1 °C 34371.3 hPa NNW 35.7 km/h 35.7 km/h 59 % 0 mm 0.0 W/m2 CLR
20:10 -12.8 °C -16.9 °C 34371.3 hPa North 50.7 km/h 50.7 km/h 60 % 0 mm 0.0 W/m2 CLR
20:15 -12.8 °C -16.8 °C 34384.8 hPa NNW 38.8 km/h 38.8 km/h 61 % 0 mm 0.0 W/m2 CLR
20:20 -12.8 °C -16.7 °C 34384.8 hPa NW 41.7 km/h 41.7 km/h 62 % 0 mm 0.0 W/m2 CLR
20:25 -12.8 °C -16.7 °C 34371.3 hPa NNE 29.8 km/h 29.8 km/h 62 % 0 mm 0.0 W/m2 CLR
20:30 -13.2 °C -16.8 °C 34371.3 hPa NW 35.7 km/h 35.7 km/h 63 % 0 mm 0.0 W/m2 CLR
20:35 -13.2 °C -16.8 °C 34371.3 hPa NW 32.8 km/h 32.8 km/h 63 % 0 mm 0.0 W/m2 CLR
20:40 -13.2 °C -16.8 °C 34371.3 hPa NNW 35.7 km/h 35.7 km/h 63 % 0 mm 0.0 W/m2 CLR
20:45 -13.2 °C -16.8 °C 34371.3 hPa NW 20.8 km/h 20.8 km/h 63 % 0 mm 0.0 W/m2 CLR
20:50 -13.2 °C -16.8 °C 34384.8 hPa NW 29.8 km/h 29.8 km/h 63 % 0 mm 0.0 W/m2 CLR
20:55 -13.2 °C -16.8 °C 34371.3 hPa NW 26.9 km/h 26.9 km/h 63 % 0 mm 0.0 W/m2 CLR
21:00 -13.2 °C -16.8 °C 34371.3 hPa NW 23.8 km/h 23.8 km/h 63 % 0 mm 0.0 W/m2 CLR
21:05 -13.2 °C -16.8 °C 34384.8 hPa NW 23.8 km/h 23.8 km/h 63 % 0 mm 0.0 W/m2 CLR
21:10 -13.2 °C -16.8 °C 34371.3 hPa NW 29.8 km/h 29.8 km/h 63 % 0 mm 0.0 W/m2 CLR
21:15 -13.4 °C -17.1 °C 34371.3 hPa NNW 26.9 km/h 27.2 km/h 63 % 0 mm 0.0 W/m2 CLR
21:20 -13.4 °C -17.1 °C 34371.3 hPa NW 32.8 km/h 32.8 km/h 63 % 0 mm 0.0 W/m2 CLR
21:25 -13.4 °C -17.1 °C 34371.3 hPa NW 35.7 km/h 35.7 km/h 63 % 0 mm 0.0 W/m2 CLR
21:30 -13.4 °C -17.1 °C 34371.3 hPa NW 44.7 km/h 44.7 km/h 63 % 0 mm 0.0 W/m2 CLR
21:35 -13.2 °C -17 °C 34361.1 hPa NW 35.7 km/h 35.7 km/h 62 % 0 mm 0.0 W/m2 CLR
21:40 -13.4 °C -17.1 °C 34361.1 hPa NNW 47.6 km/h 47.6 km/h 63 % 0 mm 0.0 W/m2 CLR
21:45 -13.4 °C -17.1 °C 34361.1 hPa NW 32.8 km/h 32.8 km/h 63 % 0 mm 0.0 W/m2 CLR
21:50 -13.4 °C -17.1 °C 34361.1 hPa NW 28.5 km/h 28.5 km/h 63 % 0 mm 0.0 W/m2 CLR
21:55 -13.4 °C -17.1 °C 34361.1 hPa WNW 29.8 km/h 29.8 km/h 63 % 0 mm 0.0 W/m2 CLR
22:00 -13.4 °C -17.1 °C 34361.1 hPa WNW 35.7 km/h 35.7 km/h 63 % 0 mm 0.0 W/m2 CLR
22:05 -13.4 °C -17.1 °C 34361.1 hPa WNW 32.8 km/h 32.8 km/h 63 % 0 mm 0.0 W/m2 CLR
22:10 -13.8 °C -17.4 °C 34361.1 hPa WNW 29.8 km/h 29.8 km/h 63 % 0 mm 0.0 W/m2 CLR
22:15 -13.8 °C -17.3 °C 34361.1 hPa NW 32.8 km/h 32.8 km/h 64 % 0 mm 0.0 W/m2 CLR
22:20 -14.1 °C -17.6 °C 34361.1 hPa WNW 23.3 km/h 23.3 km/h 64 % 0 mm 0.0 W/m2 CLR
22:25 -14.1 °C -17.4 °C 34361.1 hPa WNW 41.7 km/h 41.7 km/h 65 % 0 mm 0.0 W/m2 CLR
22:30 -14.1 °C -17.4 °C 34361.1 hPa WNW 20.9 km/h 20.9 km/h 65 % 0 mm 0.0 W/m2 CLR
22:35 -14.4 °C -17.8 °C 34361.1 hPa NW 15.6 km/h 15.6 km/h 65 % 0 mm 0.0 W/m2 CLR
22:40 -14.4 °C -17.8 °C 34361.1 hPa WNW 15 km/h 15 km/h 65 % 0 mm 0.0 W/m2 CLR
22:45 -14.7 °C -17.9 °C 34361.1 hPa NW 15.6 km/h 15.6 km/h 66 % 0 mm 0.0 W/m2 CLR
22:50 -14.7 °C -17.9 °C 34361.1 hPa WNW 23.8 km/h 23.8 km/h 66 % 0 mm 0.0 W/m2 CLR
22:55 -14.7 °C -17.9 °C 34361.1 hPa WNW 26.9 km/h 26.9 km/h 66 % 0 mm 0.0 W/m2 CLR
23:00 -14.7 °C -17.8 °C 34361.1 hPa WNW 23.8 km/h 23.8 km/h 67 % 0 mm 0.0 W/m2 CLR
23:05 -14.7 °C -17.8 °C 34361.1 hPa WNW 26.9 km/h 26.9 km/h 67 % 0 mm 0.0 W/m2 CLR
23:10 -14.7 °C -17.8 °C 34361.1 hPa WNW 29.8 km/h 29.8 km/h 67 % 0 mm 0.0 W/m2 CLR
23:15 -14.7 °C -17.8 °C 34361.1 hPa NW 29.8 km/h 29.8 km/h 67 % 0 mm 0.0 W/m2 CLR
23:20 -14.7 °C -17.8 °C 34361.1 hPa NW 35.7 km/h 35.7 km/h 67 % 0 mm 0.0 W/m2 CLR
23:25 -14.7 °C -17.8 °C 34361.1 hPa NW 29.8 km/h 29.8 km/h 67 % 0 mm 0.0 W/m2 CLR
23:30 -14.4 °C -17.6 °C 34361.1 hPa NW 31.1 km/h 31.1 km/h 67 % 0 mm 0.0 W/m2 CLR
23:35 -14.1 °C -17.3 °C 34361.1 hPa NNW 35.7 km/h 35.7 km/h 67 % 0 mm 0.0 W/m2 CLR
23:40 -14.1 °C -17.3 °C 34371.3 hPa NW 35.7 km/h 35.7 km/h 67 % 0 mm 0.0 W/m2 CLR
23:45 -14.1 °C -17.1 °C 34371.3 hPa NNW 36.2 km/h 36.2 km/h 68 % 0 mm 0.0 W/m2 CLR
23:50 -14.1 °C -17.1 °C 34371.3 hPa NW 38.8 km/h 38.8 km/h 68 % 0 mm 0.0 W/m2 CLR
23:55 -14.1 °C -17 °C 34371.3 hPa NNW 38.8 km/h 38.8 km/h 69 % 0 mm 0.0 W/m2 CLR
Lo Temps de Massalio
Compliments of Weather Underground - 1.25 mb